Time;durP1;ratioP1;P1;durP2;ratioP2;P2;SDS_P1;SDS_P2;PMS_P1;PMS_P2;Temp;Humidity;BMP_temperature;BMP_pressure;BME280_temperature;BME280_humidity;BME280_pressure;Samples;Min_cycle;Max_cycle;Signal;HPM_P1;HPM_P2
2023/11/07 08:57:18;;;;;;;;;;;;;;;5.63;100.00;99289.16;6227595;22;19990;-85
2023/11/07 08:59:44;;;;;;;;;;;;;;;5.72;100.00;99287.13;6219644;23;20278;-86
2023/11/07 09:02:12;;;;;;;;;;;;;;;5.75;100.00;99292.31;6247430;23;19916;-86
2023/11/07 09:04:38;;;;;;;;;;;;;;;5.84;100.00;99305.16;6246500;23;19995;-84
2023/11/07 09:07:03;;;;;;;;;;;;;;;5.82;100.00;99299.97;6220045;23;19943;-86
2023/11/07 09:09:29;;;;;;;;;;;;;;;5.89;100.00;99305.00;6219636;23;19986;-84
2023/11/07 09:11:54;;;;;;;;;;;;;;;5.91;100.00;99313.72;6244989;23;19941;-84
2023/11/07 09:14:21;;;;;;;;;;;;;;;5.91;100.00;99314.56;6218348;23;20208;-85
2023/11/07 09:16:46;;;;;;;;;;;;;;;5.86;100.00;99319.13;6245595;23;20018;-86
2023/11/07 09:19:13;;;;;;;;;;;;;;;5.83;100.00;99312.19;6246170;23;20340;-86
2023/11/07 09:21:38;;;;;;;;;;;;;;;5.85;100.00;99317.38;6219259;23;20381;-86
2023/11/07 09:24:04;;;;;;;;;;;;;;;5.86;100.00;99313.84;6219364;23;19907;-86
2023/11/07 09:26:29;;;;;;;;;;;;;;;5.81;100.00;99316.63;6244882;23;20410;-86
2023/11/07 09:28:54;;;;;;;;;;;;;;;5.84;100.00;99315.69;6219518;23;19911;-82
2023/11/07 09:31:20;;;;;;;;;;;;;;;5.81;100.00;99314.00;6246191;23;19911;-85
2023/11/07 09:33:46;;;;;;;;;;;;;;;5.77;100.00;99322.03;6246018;23;20031;-85
2023/11/07 09:36:12;;;;;;;;;;;;;;;5.84;100.00;99318.31;6219622;23;20335;-85
2023/11/07 09:38:38;;;;;;;;;;;;;;;5.85;100.00;99317.38;6246185;23;19943;-86
2023/11/07 09:41:03;;;;;;;;;;;;;;;5.87;100.00;99320.84;6244725;23;19962;-86
2023/11/07 09:43:28;;;;;;;;;;;;;;;5.79;100.00;99315.81;6246126;23;19919;-85
2023/11/07 09:45:56;;;;;;;;;;;;;;;5.83;100.00;99321.84;6246120;23;20255;-85
2023/11/07 09:48:25;;;;;;;;;;;;;;;5.85;100.00;99321.78;6246018;23;19958;-87
2023/11/07 09:50:52;;;;;;;;;;;;;;;5.75;100.00;99326.47;6246170;23;19915;-87
2023/11/07 09:53:18;;;;;;;;;;;;;;;5.81;100.00;99332.41;6245798;23;19933;-87
2023/11/07 09:55:44;;;;;;;;;;;;;;;5.84;100.00;99331.47;6244462;23;19919;-85
2023/11/07 09:58:13;;;;;;;;;;;;;;;5.91;100.00;99332.97;6245698;23;19924;-87
2023/11/07 10:00:42;;;;;;;;;;;;;;;5.87;100.00;99334.00;6246033;23;19919;-85
2023/11/07 10:03:08;;;;;;;;;;;;;;;5.88;100.00;99329.59;6245853;23;19908;-85
2023/11/07 10:05:37;;;;;;;;;;;;;;;5.90;100.00;99328.63;6245788;23;20393;-86
2023/11/07 10:08:02;;;;;;;;;;;;;;;5.92;100.00;99336.47;6245891;23;19907;-86
2023/11/07 10:10:27;;;;;;;;;;;;;;;5.85;100.00;99335.78;6245634;23;20341;-85
2023/11/07 10:12:53;;;;;;;;;;;;;;;5.89;100.00;99337.44;6244288;23;19911;-86
2023/11/07 10:15:19;;;;;;;;;;;;;;;5.91;100.00;99329.50;6245788;23;19912;-87
2023/11/07 10:18:04;;;;;;;;;;;;;;;5.93;100.00;99330.31;6245724;23;19916;-87
2023/11/07 10:20:34;;;;;;;;;;;;;;;5.89;100.00;99332.19;6245417;23;20323;-87
2023/11/07 10:23:00;;;;;;;;;;;;;;;5.93;100.00;99328.53;6245521;23;19916;-88
2023/11/07 10:25:26;;;;;;;;;;;;;;;5.92;100.00;99337.34;6245763;23;20351;-88
2023/11/07 10:27:59;;;;;;;;;;;;;;;5.89;100.00;99334.81;6244097;23;20247;-87
2023/11/07 10:30:44;;;;;;;;;;;;;;;5.92;100.00;99336.47;6246734;23;19916;-87
2023/11/07 10:33:10;;;;;;;;;;;;;;;5.91;100.00;99332.97;6245593;23;19994;-85
2023/11/07 10:35:56;;;;;;;;;;;;;;;5.86;100.00;99332.28;6245722;23;19916;-88
2023/11/07 10:38:22;;;;;;;;;;;;;;;5.86;100.00;99332.28;6244731;22;19982;-88
2023/11/07 10:40:48;;;;;;;;;;;;;;;5.80;100.00;99338.56;6243808;23;19942;-87
2023/11/07 10:43:13;;;;;;;;;;;;;;;5.97;100.00;99330.19;6245227;23;19918;-86
2023/11/07 10:45:38;;;;;;;;;;;;;;;5.90;100.00;99336.50;6245653;23;20043;-87
2023/11/07 10:48:06;;;;;;;;;;;;;;;5.91;100.00;99334.75;6245440;23;19911;-86
2023/11/07 10:50:33;;;;;;;;;;;;;;;5.93;100.00;99328.53;6218694;23;19918;-86
2023/11/07 10:52:59;;;;;;;;;;;;;;;5.89;100.00;99332.19;6245347;23;19955;-85
2023/11/07 10:55:24;;;;;;;;;;;;;;;5.91;100.00;99329.50;6218369;23;19911;-86
2023/11/07 10:57:53;;;;;;;;;;;;;;;5.88;100.00;99329.59;6243640;23;19991;-89
2023/11/07 11:00:20;;;;;;;;;;;;;;;5.88;100.00;99326.97;6245256;23;19912;-85
2023/11/07 11:02:52;;;;;;;;;;;;;;;5.91;100.00;99332.97;6245455;23;19958;-87
2023/11/07 11:05:19;;;;;;;;;;;;;;;5.97;100.00;99327.56;6245319;23;20535;-87
2023/11/07 11:07:50;;;;;;;;;;;;;;;5.89;100.00;99326.91;6218853;23;19912;-87
2023/11/07 11:10:15;;;;;;;;;;;;;;;5.87;100.00;99326.13;6218588;23;19926;-89
2023/11/07 11:12:43;;;;;;;;;;;;;;;5.81;100.00;99328.94;6243469;23;19915;-85
2023/11/07 11:15:09;;;;;;;;;;;;;;;5.89;100.00;99326.03;6245256;23;19971;-89
2023/11/07 11:17:40;;;;;;;;;;;;;;;5.93;100.00;99330.31;6218784;23;20304;-85
2023/11/07 11:20:22;;;;;;;;;;;;;;;5.88;100.00;99330.44;6244853;23;20243;-83
2023/11/07 11:22:50;;;;;;;;;;;;;;;5.91;100.00;99334.75;6244793;23;19943;-83
2023/11/07 11:25:21;;;;;;;;;;;;;;;5.86;100.00;99337.53;6218217;23;19918;-86
2023/11/07 11:27:51;;;;;;;;;;;;;;;5.92;100.00;99337.34;6243547;23;19915;-82
2023/11/07 11:30:16;;;;;;;;;;;;;;;5.94;100.00;99338.16;6244946;23;19958;-84
2023/11/07 11:32:43;;;;;;;;;;;;;;;5.97;100.00;99347.75;6218011;23;19911;-83
2023/11/07 11:35:11;;;;;;;;;;;;;;;5.87;100.00;99335.75;6244939;23;19922;-84
2023/11/07 11:37:56;;;;;;;;;;;;;;;5.86;100.00;99341.94;6245089;23;19912;-83
2023/11/07 11:40:42;;;;;;;;;;;;;;;5.85;100.00;99338.44;6218131;23;19922;-84
2023/11/07 11:43:07;;;;;;;;;;;;;;;5.86;100.00;99334.03;6218045;23;19911;-85
2023/11/07 11:45:33;;;;;;;;;;;;;;;5.87;100.00;99334.00;6244943;23;20331;-84
2023/11/07 11:47:59;;;;;;;;;;;;;;;5.89;100.00;99334.81;6245140;23;19912;-84
2023/11/07 11:50:25;;;;;;;;;;;;;;;5.90;100.00;99333.88;6218031;23;19981;-86
2023/11/07 11:52:50;;;;;;;;;;;;;;;5.83;100.00;99333.22;6244805;23;19961;-85
2023/11/07 11:55:17;;;;;;;;;;;;;;;5.83;100.00;99335.00;6245620;23;20284;-83
2023/11/07 11:58:02;;;;;;;;;;;;;;;5.87;100.00;99334.00;6211833;23;20319;-84
2023/11/07 12:00:38;;;;;;;;;;;;;;;5.91;100.00;99322.47;6214812;23;19947;-84
2023/11/07 12:03:04;;;;;;;;;;;;;;;5.85;100.00;99327.91;6214570;23;19939;-85
2023/11/07 12:05:30;;;;;;;;;;;;;;;5.90;100.00;99331.25;6214707;23;19916;-84
2023/11/07 12:08:15;;;;;;;;;;;;;;;5.87;100.00;99328.75;6214444;23;19935;-86
2023/11/07 12:10:54;;;;;;;;;;;;;;;5.93;100.00;99330.31;6212807;23;19916;-84
2023/11/07 12:13:22;;;;;;;;;;;;;;;5.93;100.00;99331.16;6214438;23;19912;-84
2023/11/07 12:15:48;;;;;;;;;;;;;;;5.96;100.00;99328.47;6214589;23;20213;-84
2023/11/07 12:18:15;;;;;;;;;;;;;;;5.89;100.00;99340.06;6214740;23;19912;-85
2023/11/07 12:20:44;;;;;;;;;;;;;;;5.92;100.00;99321.56;6214576;23;19962;-87
2023/11/07 12:23:12;;;;;;;;;;;;;;;5.85;100.00;99327.91;6214497;23;20244;-83
2023/11/07 12:25:47;;;;;;;;;;;;;;;5.85;100.00;99324.44;6212865;23;19919;-83
2023/11/07 12:28:13;;;;;;;;;;;;;;;5.84;100.00;99328.84;6188344;23;19915;-82
2023/11/07 12:30:39;;;;;;;;;;;;;;;5.93;100.00;99322.41;6214678;23;19912;-84
2023/11/07 12:33:10;;;;;;;;;;;;;;;5.97;100.00;99324.94;6216004;23;20003;-83
2023/11/07 12:35:36;;;;;;;;;;;;;;;5.87;100.00;99326.13;6216392;23;19958;-83
2023/11/07 12:38:07;;;;;;;;;;;;;;;5.91;100.00;99327.72;6216398;23;19912;-85
2023/11/07 12:40:33;;;;;;;;;;;;;;;5.94;100.00;99324.16;6215761;23;19990;-84
2023/11/07 12:42:59;;;;;;;;;;;;;;;5.98;100.00;99334.56;6215858;23;19961;-85
2023/11/07 12:45:28;;;;;;;;;;;;;;;5.93;100.00;99318.00;6216256;23;19943;-84
2023/11/07 12:47:58;;;;;;;;;;;;;;;5.94;100.00;99319.75;6216363;23;19916;-84
2023/11/07 12:50:23;;;;;;;;;;;;;;;5.93;100.00;99311.91;6216221;23;19908;-83
2023/11/07 12:52:55;;;;;;;;;;;;;;;5.85;100.00;99313.91;6215240;23;20367;-83
2023/11/07 12:55:26;;;;;;;;;;;;;;;5.96;100.00;99320.56;6216164;23;19958;-85
2023/11/07 12:57:52;;;;;;;;;;;;;;;5.94;100.00;99308.38;6226951;23;19915;-84
2023/11/07 13:00:18;;;;;;;;;;;;;;;5.99;100.00;99312.59;6246576;23;19995;-84
2023/11/07 13:02:44;;;;;;;;;;;;;;;5.96;100.00;99312.69;6246513;23;19911;-87
2023/11/07 13:05:18;;;;;;;;;;;;;;;5.96;100.00;99322.31;6246475;23;19922;-85
2023/11/07 13:07:43;;;;;;;;;;;;;;;6.01;100.00;99323.06;6219690;23;19912;-83
2023/11/07 13:10:12;;;;;;;;;;;;;;;6.03;100.00;99317.75;6246475;23;19938;-85
2023/11/07 13:12:37;;;;;;;;;;;;;;;6.03;100.00;99323.91;6244546;23;20224;-83
2023/11/07 13:15:03;;;;;;;;;;;;;;;6.00;100.00;99327.47;6219673;23;19919;-85
2023/11/07 13:17:28;;;;;;;;;;;;;;;5.96;100.00;99328.47;6246249;23;20298;-85
2023/11/07 13:19:54;;;;;;;;;;;;;;;5.88;100.00;99325.19;6246378;23;19938;-85
2023/11/07 13:22:20;;;;;;;;;;;;;;;5.94;100.00;99329.41;6219432;23;19919;-86
2023/11/07 13:24:45;;;;;;;;;;;;;;;5.97;100.00;99322.31;6246281;23;20065;-84
2023/11/07 13:27:10;;;;;;;;;;;;;;;5.96;100.00;99324.94;6244704;23;19912;-85
2023/11/07 13:29:35;;;;;;;;;;;;;;;5.94;100.00;99326.78;6219434;23;19919;-84
2023/11/07 13:32:01;;;;;;;;;;;;;;;6.00;100.00;99330.09;6246157;23;19943;-85
2023/11/07 13:34:26;;;;;;;;;;;;;;;6.08;100.00;99334.25;6246524;23;20254;-85
2023/11/07 13:36:51;;;;;;;;;;;;;;;6.00;100.00;99334.50;6244996;23;19950;-84
2023/11/07 13:39:23;;;;;;;;;;;;;;;5.95;100.00;99326.72;6246297;23;19916;-90
2023/11/07 13:41:48;;;;;;;;;;;;;;;5.96;100.00;99333.72;6244574;23;19961;-86
2023/11/07 13:44:13;;;;;;;;;;;;;;;5.91;100.00;99342.66;6219122;23;20002;-88
2023/11/07 13:46:40;;;;;;;;;;;;;;;5.93;100.00;99338.19;6245973;23;20324;-86
2023/11/07 13:49:08;;;;;;;;;;;;;;;5.94;100.00;99346.03;6246543;23;20282;-85
2023/11/07 13:51:34;;;;;;;;;;;;;;;5.86;100.00;99350.66;6219183;23;19915;-88
2023/11/07 13:53:59;;;;;;;;;;;;;;;5.93;100.00;99343.44;6246118;23;20393;-84
2023/11/07 13:56:25;;;;;;;;;;;;;;;5.95;100.00;99350.41;6244441;23;20373;-84
2023/11/07 13:58:52;;;;;;;;;;;;;;;5.94;100.00;99348.66;6218922;23;20391;-88
2023/11/07 14:01:18;;;;;;;;;;;;;;;5.99;100.00;99345.94;6219415;23;19912;-84
2023/11/07 14:03:44;;;;;;;;;;;;;;;5.95;100.00;99350.41;6245854;23;19916;-84
2023/11/07 14:06:09;;;;;;;;;;;;;;;5.90;100.00;99354.91;6246072;23;19942;-88
2023/11/07 14:08:35;;;;;;;;;;;;;;;5.86;100.00;99361.19;6245859;23;19911;-80
2023/11/07 14:11:01;;;;;;;;;;;;;;;5.91;100.00;99354.03;6244382;23;19923;-85
2023/11/07 14:13:26;;;;;;;;;;;;;;;6.00;100.00;99359.03;6245825;23;19958;-83
2023/11/07 14:15:52;;;;;;;;;;;;;;;5.92;100.00;99358.38;6245651;23;19915;-86
2023/11/07 14:18:18;;;;;;;;;;;;;;;5.88;100.00;99367.25;6245717;23;19912;-83
2023/11/07 14:20:53;;;;;;;;;;;;;;;5.87;100.00;99364.66;6244159;23;20393;-85
2023/11/07 14:23:18;;;;;;;;;;;;;;;5.96;100.00;99365.28;6245759;23;19911;-84
2023/11/07 14:25:43;;;;;;;;;;;;;;;5.91;100.00;99367.16;6244045;23;19989;-84
2023/11/07 14:28:10;;;;;;;;;;;;;;;6.01;100.00;99373.03;6244146;23;19966;-84
2023/11/07 14:30:43;;;;;;;;;;;;;;;5.95;100.00;99370.56;6245579;23;19958;-84
2023/11/07 14:33:08;;;;;;;;;;;;;;;5.93;100.00;99375.00;6245223;23;19935;-83
2023/11/07 14:35:34;;;;;;;;;;;;;;;5.94;100.00;99371.47;6244138;23;19912;-84
2023/11/07 14:38:00;;;;;;;;;;;;;;;5.92;100.00;99376.78;6245537;23;20334;-84
2023/11/07 14:40:25;;;;;;;;;;;;;;;5.88;100.00;99372.50;6245638;23;19939;-85
2023/11/07 14:42:53;;;;;;;;;;;;;;;5.92;100.00;99368.91;6242364;23;19987;-86
2023/11/07 14:45:21;;;;;;;;;;;;;;;5.90;100.00;99368.06;6245825;23;20362;-84
2023/11/07 14:47:47;;;;;;;;;;;;;;;5.90;100.00;99385.63;6245115;23;19912;-83
2023/11/07 14:50:13;;;;;;;;;;;;;;;5.85;100.00;99385.75;6218362;23;19918;-84
2023/11/07 14:52:42;;;;;;;;;;;;;;;5.89;100.00;99383.88;6245069;23;19912;-84
2023/11/07 14:55:10;;;;;;;;;;;;;;;5.86;100.00;99394.53;6245110;23;20350;-82
2023/11/07 14:57:35;;;;;;;;;;;;;;;5.88;100.00;99393.56;6237277;23;19920;-84
2023/11/07 15:00:04;;;;;;;;;;;;;;;5.88;100.00;99395.31;6239048;23;20366;-84
2023/11/07 15:02:29;;;;;;;;;;;;;;;5.93;100.00;99393.41;6214597;23;19978;-83
2023/11/07 15:04:56;;;;;;;;;;;;;;;5.93;100.00;99407.41;6213384;23;20340;-83
2023/11/07 15:07:21;;;;;;;;;;;;;;;5.91;100.00;99390.84;6215120;23;19927;-84
2023/11/07 15:09:46;;;;;;;;;;;;;;;5.90;100.00;99398.75;6214995;23;19908;-84
2023/11/07 15:12:14;;;;;;;;;;;;;;;5.82;100.00;99399.88;6211740;23;19912;-83
2023/11/07 15:14:40;;;;;;;;;;;;;;;5.91;100.00;99406.59;6214938;23;19920;-84
2023/11/07 15:17:05;;;;;;;;;;;;;;;5.92;100.00;99404.84;6214930;23;19912;-85
2023/11/07 15:19:31;;;;;;;;;;;;;;;5.86;100.00;99399.78;6238627;23;19947;-83
2023/11/07 15:21:58;;;;;;;;;;;;;;;5.90;100.00;99406.66;6214903;23;19916;-86
2023/11/07 15:24:23;;;;;;;;;;;;;;;5.89;100.00;99416.31;6214900;23;19994;-84
2023/11/07 15:26:50;;;;;;;;;;;;;;;5.94;100.00;99403.03;6236940;23;19956;-86
2023/11/07 15:29:16;;;;;;;;;;;;;;;5.91;100.00;99403.97;6214858;23;19919;-84
2023/11/07 15:31:42;;;;;;;;;;;;;;;5.92;100.00;99412.72;6215154;23;20197;-91
2023/11/07 15:34:08;;;;;;;;;;;;;;;5.88;100.00;99409.31;6238708;23;19915;-87
2023/11/07 15:36:34;;;;;;;;;;;;;;;5.85;100.00;99409.41;6214689;23;19923;-84
2023/11/07 15:38:59;;;;;;;;;;;;;;;5.89;100.00;99413.69;6213278;23;19923;-85
2023/11/07 15:41:27;;;;;;;;;;;;;;;5.85;100.00;99411.19;6213171;23;19951;-83
2023/11/07 15:43:52;;;;;;;;;;;;;;;5.88;100.00;99419.84;6213006;23;19916;-84
2023/11/07 15:46:17;;;;;;;;;;;;;;;5.85;100.00;99421.72;6214707;23;20374;-83
2023/11/07 15:48:42;;;;;;;;;;;;;;;5.84;100.00;99420.88;6214696;23;20239;-85
2023/11/07 15:51:08;;;;;;;;;;;;;;;5.78;100.00;99428.94;6214752;23;19915;-86
2023/11/07 15:53:33;;;;;;;;;;;;;;;5.74;100.00;99422.88;6214574;23;19922;-85
2023/11/07 15:55:58;;;;;;;;;;;;;;;5.90;100.00;99425.06;6236895;23;19939;-87
2023/11/07 15:58:26;;;;;;;;;;;;;;;7.75;100.00;99419.81;6233617;23;19915;-93
2023/11/07 16:00:53;;;;;;;;;;;;;;;6.66;100.00;99428.91;6244813;23;19969;-85
2023/11/07 16:03:18;;;;;;;;;;;;;;;6.34;100.00;99434.28;6218336;23;19915;-86
2023/11/07 16:05:44;;;;;;;;;;;;;;;6.18;100.00;99444.41;6245262;23;19918;-86
2023/11/07 16:08:13;;;;;;;;;;;;;;;6.12;100.00;99438.47;6247052;23;19950;-87
2023/11/07 16:10:40;;;;;;;;;;;;;;;6.07;100.00;99445.66;6246240;23;19916;-88
2023/11/07 16:13:08;;;;;;;;;;;;;;;5.98;100.00;99441.50;6219782;23;19912;-86
2023/11/07 16:15:33;;;;;;;;;;;;;;;5.96;100.00;99446.81;6246911;23;19990;-86
2023/11/07 16:17:59;;;;;;;;;;;;;;;5.95;100.00;99446.81;6247193;23;19942;-89
2023/11/07 16:20:24;;;;;;;;;;;;;;;5.88;100.00;99443.50;6247070;23;20351;-86
2023/11/07 16:22:49;;;;;;;;;;;;;;;5.89;100.00;99447.00;6246998;23;20251;-87
2023/11/07 16:25:18;;;;;;;;;;;;;;;5.83;100.00;99450.69;6246829;23;19951;-85
2023/11/07 16:27:43;;;;;;;;;;;;;;;5.87;100.00;99448.81;6245358;23;19915;-89
2023/11/07 16:30:09;;;;;;;;;;;;;;;5.86;100.00;99450.59;6247051;23;20343;-87
2023/11/07 16:32:35;;;;;;;;;;;;;;;5.79;100.00;99449.03;6246854;23;19912;-87
2023/11/07 16:35:00;;;;;;;;;;;;;;;5.83;100.00;99448.06;6246830;23;19919;-86
2023/11/07 16:37:26;;;;;;;;;;;;;;;5.78;100.00;99447.31;6246796;23;20319;-85
2023/11/07 16:39:53;;;;;;;;;;;;;;;5.78;100.00;99455.22;6219755;23;19921;-87
2023/11/07 16:42:18;;;;;;;;;;;;;;;5.75;100.00;99456.16;6245376;23;20239;-86
2023/11/07 16:44:44;;;;;;;;;;;;;;;5.76;100.00;99457.88;6246694;23;19915;-85
2023/11/07 16:47:12;;;;;;;;;;;;;;;5.71;100.00;99456.28;6247064;23;19990;-88
2023/11/07 16:49:41;;;;;;;;;;;;;;;5.74;100.00;99457.03;6246760;23;19911;-85
2023/11/07 16:52:07;;;;;;;;;;;;;;;5.73;100.00;99463.22;6246724;23;20320;-85
2023/11/07 16:54:32;;;;;;;;;;;;;;;5.77;100.00;99464.84;6246480;23;19915;-89
2023/11/07 16:56:57;;;;;;;;;;;;;;;5.69;100.00;99456.31;6244812;23;19938;-88
2023/11/07 16:59:23;;;;;;;;;;;;;;;5.67;100.00;99463.41;6246529;23;19916;-85
2023/11/07 17:01:48;;;;;;;;;;;;;;;5.77;100.00;99464.84;6246491;23;19919;-86
2023/11/07 17:04:13;;;;;;;;;;;;;;;5.75;100.00;99468.44;6247305;23;19915;-88
2023/11/07 17:06:39;;;;;;;;;;;;;;;5.77;100.00;99464.84;6219959;23;19919;-88
2023/11/07 17:09:05;;;;;;;;;;;;;;;5.78;100.00;99469.22;6246437;23;19922;-89
2023/11/07 17:11:30;;;;;;;;;;;;;;;5.75;100.00;99469.31;6245131;23;19915;-84
2023/11/07 17:13:57;;;;;;;;;;;;;;;5.76;100.00;99475.41;6246472;23;19912;-87
2023/11/07 17:16:22;;;;;;;;;;;;;;;5.72;100.00;99476.41;6246489;23;20389;-87
2023/11/07 17:18:48;;;;;;;;;;;;;;;5.71;100.00;99486.09;6246197;23;19943;-88
2023/11/07 17:21:13;;;;;;;;;;;;;;;5.73;100.00;99486.03;6246584;23;19954;-88
2023/11/07 17:23:38;;;;;;;;;;;;;;;5.72;100.00;99493.03;6246239;23;19911;-85
2023/11/07 17:26:05;;;;;;;;;;;;;;;5.66;100.00;99487.09;6244866;23;19921;-88
2023/11/07 17:28:30;;;;;;;;;;;;;;;5.72;100.00;99482.53;6219406;23;19954;-85
2023/11/07 17:30:55;;;;;;;;;;;;;;;5.72;100.00;99487.78;6246276;23;19942;-85
2023/11/07 17:33:21;;;;;;;;;;;;;;;5.69;100.00;99492.28;6246451;23;19938;-87
2023/11/07 17:35:46;;;;;;;;;;;;;;;5.70;100.00;99491.38;6246326;23;19912;-85
2023/11/07 17:38:12;;;;;;;;;;;;;;;5.72;100.00;99502.72;6246109;23;19912;-85
2023/11/07 17:40:37;;;;;;;;;;;;;;;5.69;100.00;99497.53;6245966;23;19915;-85
2023/11/07 17:43:02;;;;;;;;;;;;;;;5.67;100.00;99500.19;6245438;23;19930;-84
2023/11/07 17:45:29;;;;;;;;;;;;;;;5.71;100.00;99506.22;6246278;23;20248;-88
2023/11/07 17:47:54;;;;;;;;;;;;;;;5.68;100.00;99501.06;6246745;23;19935;-85
2023/11/07 17:50:19;;;;;;;;;;;;;;;5.68;100.00;99507.19;6220106;23;20328;-84
2023/11/07 17:52:45;;;;;;;;;;;;;;;5.68;100.00;99512.44;6246106;23;19934;-86
2023/11/07 17:55:13;;;;;;;;;;;;;;;5.69;100.00;99508.03;6246361;23;19950;-87
2023/11/07 17:57:39;;;;;;;;;;;;;;;5.64;100.00;99514.28;6243009;23;19938;-89
2023/11/07 18:00:04;;;;;;;;;;;;;;;5.69;100.00;99508.91;6246099;23;19939;-84
2023/11/07 18:02:30;;;;;;;;;;;;;;;5.68;100.00;99517.72;6246021;23;19924;-85
2023/11/07 18:04:55;;;;;;;;;;;;;;;5.72;100.00;99513.22;6244438;23;20387;-85
2023/11/07 18:07:20;;;;;;;;;;;;;;;5.68;100.00;99509.81;6245841;23;19969;-89
2023/11/07 18:09:49;;;;;;;;;;;;;;;5.66;100.00;99519.50;6246542;23;19912;-85
2023/11/07 18:12:14;;;;;;;;;;;;;;;5.68;100.00;99519.47;6217439;23;19915;-87
2023/11/07 18:14:40;;;;;;;;;;;;;;;5.62;100.00;99528.38;6245789;23;19954;-86
2023/11/07 18:17:07;;;;;;;;;;;;;;;5.60;100.00;99515.28;6245934;23;19918;-88
2023/11/07 18:19:32;;;;;;;;;;;;;;;5.59;100.00;99520.59;6244374;23;19925;-88
2023/11/07 18:21:58;;;;;;;;;;;;;;;5.56;100.00;99526.78;6245878;23;19951;-91
2023/11/07 18:24:23;;;;;;;;;;;;;;;5.59;100.00;99523.22;6245923;23;19938;-88
2023/11/07 18:26:50;;;;;;;;;;;;;;;5.55;100.00;99525.06;6242913;23;20419;-87
2023/11/07 18:29:16;;;;;;;;;;;;;;;5.58;100.00;99517.06;6246387;23;19911;-85
2023/11/07 18:31:41;;;;;;;;;;;;;;;5.61;100.00;99518.75;6219503;23;20369;-90
2023/11/07 18:34:09;;;;;;;;;;;;;;;5.54;100.00;99519.84;6245813;23;19918;-85
2023/11/07 18:36:34;;;;;;;;;;;;;;;5.57;100.00;99515.38;6245561;23;19911;-88
2023/11/07 18:39:00;;;;;;;;;;;;;;;5.58;100.00;99521.47;6245672;23;20691;-85
2023/11/07 18:41:25;;;;;;;;;;;;;;;5.58;100.00;99516.22;6217310;23;19912;-84
2023/11/07 18:43:51;;;;;;;;;;;;;;;5.62;100.00;99523.13;6245592;23;19951;-87
2023/11/07 18:46:16;;;;;;;;;;;;;;;5.62;100.00;99526.59;6245540;23;19933;-85
2023/11/07 18:48:42;;;;;;;;;;;;;;;5.58;100.00;99532.84;6218912;23;19911;-87
2023/11/07 18:51:10;;;;;;;;;;;;;;;5.66;100.00;99529.16;6219026;23;19912;-85
2023/11/07 18:53:38;;;;;;;;;;;;;;;5.60;100.00;99527.53;6245471;23;19934;-86
2023/11/07 18:56:04;;;;;;;;;;;;;;;5.57;100.00;99527.66;6217010;23;20350;-86
2023/11/07 18:58:31;;;;;;;;;;;;;;;5.59;100.00;99533.72;6245173;23;19920;-86
2023/11/07 19:00:56;;;;;;;;;;;;;;;5.55;100.00;99532.94;6245427;23;20000;-85
2023/11/07 19:03:21;;;;;;;;;;;;;;;5.56;100.00;99526.78;6218687;23;19912;-84
2023/11/07 19:05:46;;;;;;;;;;;;;;;5.54;100.00;99525.97;6245478;23;19957;-85
2023/11/07 19:08:12;;;;;;;;;;;;;;;5.56;100.00;99524.13;6245486;23;19915;-85
2023/11/07 19:10:37;;;;;;;;;;;;;;;5.55;100.00;99532.94;6218848;23;19912;-86
2023/11/07 19:13:02;;;;;;;;;;;;;;;5.52;100.00;99527.78;6243806;23;20299;-86
2023/11/07 19:15:27;;;;;;;;;;;;;;;5.57;100.00;99538.16;6245179;23;20240;-85
2023/11/07 19:17:53;;;;;;;;;;;;;;;5.58;100.00;99538.09;6218352;23;19986;-85
2023/11/07 19:20:18;;;;;;;;;;;;;;;5.59;100.00;99538.97;6243708;23;19961;-85
2023/11/07 19:22:43;;;;;;;;;;;;;;;5.59;100.00;99542.47;6245022;23;19919;-85
2023/11/07 19:25:09;;;;;;;;;;;;;;;5.55;100.00;99542.56;6245677;23;19919;-84
2023/11/07 19:27:35;;;;;;;;;;;;;;;5.55;100.00;99540.84;6243692;23;19919;-83
2023/11/07 19:30:02;;;;;;;;;;;;;;;5.53;100.00;99539.13;6245271;23;20251;-86
2023/11/07 19:32:28;;;;;;;;;;;;;;;5.57;100.00;99541.66;6245203;23;20251;-84
2023/11/07 19:34:56;;;;;;;;;;;;;;;5.52;100.00;99551.44;6245317;23;19923;-85
2023/11/07 19:37:21;;;;;;;;;;;;;;;5.59;100.00;99552.13;6245092;23;19919;-86
2023/11/07 19:39:49;;;;;;;;;;;;;;;5.59;100.00;99554.75;6245202;23;20328;-86
2023/11/07 19:42:14;;;;;;;;;;;;;;;5.49;100.00;99554.13;6243316;23;19915;-85
2023/11/07 19:44:40;;;;;;;;;;;;;;;5.53;100.00;99547.88;6245336;23;20248;-86
2023/11/07 19:47:05;;;;;;;;;;;;;;;5.54;100.00;99551.38;6245071;23;19916;-90
2023/11/07 19:49:30;;;;;;;;;;;;;;;5.49;100.00;99554.13;6245072;23;20373;-88
2023/11/07 19:51:57;;;;;;;;;;;;;;;5.45;100.00;99555.09;6245413;23;19957;-85
2023/11/07 19:54:23;;;;;;;;;;;;;;;5.49;100.00;99556.75;6244937;23;19922;-88
2023/11/07 19:56:48;;;;;;;;;;;;;;;5.54;100.00;99549.59;6243682;23;19919;-87
2023/11/07 19:59:13;;;;;;;;;;;;;;;5.52;100.00;99548.78;6213517;23;19946;-85
2023/11/07 20:01:39;;;;;;;;;;;;;;;5.50;100.00;99555.84;6214734;23;19942;-85
2023/11/07 20:04:04;;;;;;;;;;;;;;;5.53;100.00;99563.66;6214759;23;19939;-84
2023/11/07 20:06:30;;;;;;;;;;;;;;;5.51;100.00;99557.56;6214368;23;19920;-84
2023/11/07 20:08:55;;;;;;;;;;;;;;;5.51;100.00;99556.72;6214724;23;19940;-85
2023/11/07 20:11:20;;;;;;;;;;;;;;;5.46;100.00;99554.22;6213314;23;19911;-85
2023/11/07 20:13:45;;;;;;;;;;;;;;;5.51;100.00;99562.81;6214568;23;19916;-84
2023/11/07 20:16:11;;;;;;;;;;;;;;;5.46;100.00;99554.22;6214505;23;20370;-86
2023/11/07 20:18:36;;;;;;;;;;;;;;;5.49;100.00;99554.13;6214637;23;19923;-86
2023/11/07 20:21:01;;;;;;;;;;;;;;;5.46;100.00;99559.47;6214369;23;19943;-87
2023/11/07 20:23:27;;;;;;;;;;;;;;;5.45;100.00;99560.34;6214814;23;20316;-85
2023/11/07 20:25:52;;;;;;;;;;;;;;;5.49;100.00;99564.66;6213076;23;20286;-86
2023/11/07 20:28:17;;;;;;;;;;;;;;;5.45;100.00;99558.56;6214664;23;20280;-85
2023/11/07 20:30:43;;;;;;;;;;;;;;;5.44;100.00;99556.88;6214431;23;19912;-86
2023/11/07 20:33:08;;;;;;;;;;;;;;;5.39;100.00;99563.13;6215029;23;19994;-85
2023/11/07 20:35:36;;;;;;;;;;;;;;;5.40;100.00;99564.88;6214549;23;19919;-85
2023/11/07 20:38:07;;;;;;;;;;;;;;;5.47;100.00;99561.16;6214588;23;19912;-84
2023/11/07 20:40:32;;;;;;;;;;;;;;;5.49;100.00;99554.13;6214585;23;19915;-85
2023/11/07 20:42:57;;;;;;;;;;;;;;;5.39;100.00;99560.50;6214835;23;19938;-88
2023/11/07 20:45:23;;;;;;;;;;;;;;;5.45;100.00;99562.97;6188976;23;20541;-88
2023/11/07 20:47:48;;;;;;;;;;;;;;;5.48;100.00;99565.53;6215773;23;19916;-87
2023/11/07 20:50:16;;;;;;;;;;;;;;;5.50;100.00;99566.34;6215923;23;19912;-87
2023/11/07 20:52:41;;;;;;;;;;;;;;;5.49;100.00;99561.13;6215405;23;20279;-85
2023/11/07 20:55:06;;;;;;;;;;;;;;;5.48;100.00;99557.66;6216824;23;19912;-84
2023/11/07 20:57:32;;;;;;;;;;;;;;;5.42;100.00;99565.69;6223132;23;19926;-85
2023/11/07 20:59:57;;;;;;;;;;;;;;;5.49;100.00;99567.28;6247142;23;20335;-85
2023/11/07 21:02:24;;;;;;;;;;;;;;;5.51;100.00;99567.22;6246717;23;19912;-84
2023/11/07 21:04:49;;;;;;;;;;;;;;;5.43;100.00;99564.78;6246823;23;19954;-84
2023/11/07 21:07:14;;;;;;;;;;;;;;;5.44;100.00;99567.38;6247001;23;19912;-84
2023/11/07 21:09:39;;;;;;;;;;;;;;;5.39;100.00;99571.91;6246820;23;19916;-84
2023/11/07 21:12:05;;;;;;;;;;;;;;;5.45;100.00;99568.22;6245225;23;19912;-84
2023/11/07 21:14:31;;;;;;;;;;;;;;;5.41;100.00;99577.13;6246523;23;19986;-83
2023/11/07 21:16:57;;;;;;;;;;;;;;;5.45;100.00;99576.97;6246615;23;19997;-83
2023/11/07 21:19:22;;;;;;;;;;;;;;;5.44;100.00;99570.00;6219221;23;19915;-82
2023/11/07 21:21:47;;;;;;;;;;;;;;;5.50;100.00;99576.84;6246281;23;20324;-83
2023/11/07 21:24:13;;;;;;;;;;;;;;;5.55;100.00;99569.75;6246559;23;20248;-84
2023/11/07 21:26:38;;;;;;;;;;;;;;;5.51;100.00;99575.13;6244920;23;19912;-83
2023/11/07 21:29:04;;;;;;;;;;;;;;;5.56;100.00;99584.59;6246281;23;19912;-83
2023/11/07 21:31:29;;;;;;;;;;;;;;;5.53;100.00;99578.56;6246336;23;20006;-82
2023/11/07 21:33:54;;;;;;;;;;;;;;;5.54;100.00;99578.53;6246006;23;19911;-82
2023/11/07 21:36:19;;;;;;;;;;;;;;;5.59;100.00;99581.88;6246231;23;19943;-83
2023/11/07 21:38:44;;;;;;;;;;;;;;;5.53;100.00;99575.94;6246226;23;20441;-82
2023/11/07 21:41:10;;;;;;;;;;;;;;;5.61;100.00;99580.06;6244793;23;20298;-82